Time;durP1;ratioP1;P1;durP2;ratioP2;P2;SDS_P1;SDS_P2;PMS_P1;PMS_P2;Temp;Humidity;BMP_temperature;BMP_pressure;BME280_temperature;BME280_humidity;BME280_pressure;Samples;Min_cycle;Max_cycle;Signal;HPM_P1;HPM_P2
2021/04/03 04:31:08;;;;;;;23.35;16.73;;;;;;;11.14;79.25;93888.49;828004;71;30225;-75
2021/04/03 04:46:12;;;;;;;24.25;17.07;;;;;;;12.12;75.40;93895.05;827988;71;32035;-76
2021/04/03 05:01:09;;;;;;;26.05;17.92;;;;;;;12.76;74.16;93901.41;828153;71;29786;-77
2021/04/03 05:16:15;;;;;;;28.32;19.55;;;;;;;12.79;72.96;93894.17;827270;71;32684;-76
2021/04/03 05:31:10;;;;;;;25.52;18.90;;;;;;;12.81;75.17;93894.63;827788;71;30343;-78
2021/04/03 05:46:08;;;;;;;35.25;22.90;;;;;;;12.73;75.61;93905.45;818751;71;29840;-75
2021/04/03 06:01:09;;;;;;;32.23;22.85;;;;;;;14.19;72.89;93902.78;818456;70;30360;-75
2021/04/03 06:16:24;;;;;;;31.75;22.55;;;;;;;15.85;67.08;93894.17;827354;71;32725;-76
2021/04/03 06:31:16;;;;;;;27.55;20.90;;;;;;;17.40;61.31;93898.27;828346;71;28656;-74
2021/04/03 06:46:25;;;;;;;23.47;18.27;;;;;;;16.62;60.68;93887.87;828217;71;31808;-77
2021/04/03 07:01:09;;;;;;;22.55;16.97;;;;;;;16.88;60.59;93890.62;828912;71;28713;-78
2021/04/03 07:16:09;;;;;;;23.62;17.80;;;;;;;16.80;58.95;93890.97;833692;71;28676;-75
2021/04/03 07:31:13;;;;;;;20.57;16.07;;;;;;;15.98;61.76;93878.48;825238;71;29231;-75
2021/04/03 07:46:17;;;;;;;23.75;17.95;;;;;;;16.98;59.45;93870.98;821360;71;29561;-75
2021/04/03 08:01:15;;;;;;;28.40;21.20;;;;;;;19.46;54.63;93853.58;820589;71;32389;-77
2021/04/03 08:16:20;;;;;;;32.28;23.83;;;;;;;19.61;52.37;93841.43;827303;71;31841;-76
2021/04/03 08:31:20;;;;;;;28.87;22.00;;;;;;;19.79;51.93;93843.02;819228;71;29667;-76
2021/04/03 08:46:15;;;;;;;20.62;16.02;;;;;;;20.12;49.24;93828.16;827241;71;32293;-75
2021/04/03 09:01:48;;;;;;;16.70;14.90;;;;;;;20.81;47.57;93802.92;820350;71;31958;-76
2021/04/03 09:16:14;;;;;;;14.45;12.98;;;;;;;21.23;45.42;93779.02;833608;71;28335;-79
2021/04/03 09:31:14;;;;;;;17.90;12.88;;;;;;;21.76;45.57;93767.06;833423;71;31726;-75
2021/04/03 09:46:08;;;;;;;13.33;11.93;;;;;;;22.82;41.26;93730.15;833695;71;28758;-77
2021/04/03 10:01:24;;;;;;;15.27;11.40;;;;;;;24.03;39.64;93712.16;819137;71;32046;-77
2021/04/03 10:16:25;;;;;;;12.67;11.47;;;;;;;24.18;37.73;93700.75;820951;71;31890;-78
2021/04/03 10:31:08;;;;;;;15.40;13.60;;;;;;;22.20;41.20;93687.17;828413;71;28689;-77
2021/04/03 10:46:15;;;;;;;16.90;12.53;;;;;;;19.34;48.28;93685.61;817395;71;31750;-77
2021/04/03 11:01:09;;;;;;;21.65;17.75;;;;;;;18.39;61.54;93741.29;821184;71;29868;-79
2021/04/03 11:16:17;;;;;;;15.35;13.75;;;;;;;17.29;65.72;93760.69;820077;71;31850;-77
2021/04/03 11:31:43;;;;;;;18.50;14.80;;;;;;;16.41;69.19;93727.34;819512;71;31895;-76
2021/04/03 11:46:16;;;;;;;13.88;11.35;;;;;;;15.19;67.70;93681.95;820897;71;31886;-77
2021/04/03 12:01:09;;;;;;;17.60;13.13;;;;;;;14.89;73.47;93692.63;819774;71;28811;-76
2021/04/03 12:16:14;;;;;;;14.55;11.60;;;;;;;14.91;78.62;93677.21;823358;71;31925;-75
2021/04/03 12:31:10;;;;;;;14.20;11.20;;;;;;;15.06;80.15;93686.30;826097;71;28842;-76
2021/04/03 12:46:10;;;;;;;16.60;13.20;;;;;;;14.91;79.16;93658.16;825998;71;29854;-78
2021/04/03 13:01:16;;;;;;;14.58;12.78;;;;;;;15.63;79.64;93686.48;819201;71;32503;-76
2021/04/03 13:16:14;;;;;;;17.65;11.78;;;;;;;15.63;77.74;93685.95;820081;71;31845;-76
2021/04/03 13:31:18;;;;;;;14.28;12.55;;;;;;;15.44;76.32;93673.91;821666;71;31931;-76
2021/04/03 13:46:10;;;;;;;17.75;13.32;;;;;;;15.19;78.55;93691.77;823944;71;30515;-76
2021/04/03 14:01:08;;;;;;;15.75;13.20;;;;;;;15.00;79.86;93683.11;822466;71;28882;-77
2021/04/03 14:16:14;;;;;;;18.92;15.88;;;;;;;15.12;76.39;93692.88;820124;71;32840;-78
2021/04/03 14:31:15;;;;;;;26.68;19.95;;;;;;;14.68;75.38;93754.81;828983;71;32907;-76
2021/04/03 14:46:15;;;;;;;24.10;19.60;;;;;;;14.01;78.89;93789.28;821025;71;31940;-75
2021/04/03 15:01:41;;;;;;;25.50;19.57;;;;;;;13.37;79.98;93753.02;823766;71;30910;-77
2021/04/03 15:16:17;;;;;;;31.15;20.23;;;;;;;13.54;81.00;93744.73;820535;71;32856;-77
2021/04/03 15:31:10;;;;;;;21.12;16.37;;;;;;;13.56;77.56;93778.13;822196;71;31227;-76
2021/04/03 15:46:14;;;;;;;18.02;13.88;;;;;;;13.17;75.53;93801.95;830822;71;32860;-76
2021/04/03 16:01:14;;;;;;;19.70;13.53;;;;;;;12.50;73.39;93844.91;833550;71;32864;-73
2021/04/03 21:01:46;;;;;;;8.80;7.90;;;;;;;8.74;75.08;94082.59;827528;71;32777;-79
2021/04/03 21:16:10;;;;;;;6.12;5.53;;;;;;;8.79;74.08;94066.83;828023;71;30272;-79
2021/04/03 21:31:16;;;;;;;7.25;6.30;;;;;;;8.82;74.09;94083.27;827164;71;33097;-78
2021/04/03 21:46:12;;;;;;;5.35;4.95;;;;;;;8.66;76.18;94103.66;827664;71;31230;-77
2021/04/03 22:01:09;;;;;;;5.20;4.70;;;;;;;8.53;77.72;94103.83;828114;71;30295;-78
2021/04/03 22:16:09;;;;;;;4.10;3.80;;;;;;;8.42;75.37;94122.81;828153;71;30405;-77
2021/04/03 22:31:09;;;;;;;4.50;4.20;;;;;;;8.23;75.08;94127.20;828377;71;30253;-77
2021/04/03 22:46:09;;;;;;;3.55;3.25;;;;;;;8.02;74.70;94134.00;828034;71;30082;-79
2021/04/03 23:01:29;;;;;;;3.58;3.30;;;;;;;7.88;74.37;94139.66;833787;71;32768;-76
2021/04/03 23:16:15;;;;;;;3.20;3.00;;;;;;;7.78;74.13;94141.08;833882;71;33176;-76
2021/04/03 23:31:19;;;;;;;3.05;2.85;;;;;;;7.71;74.62;94146.64;828047;71;32698;-80
2021/04/03 23:46:09;;;;;;;5.25;4.75;;;;;;;7.61;74.13;94144.14;834258;71;30325;-76
